Kasagimaru — JJ3905 — position and weather

sailwx.info

Track history (hours):
 
Tides and Currents Weather Stations Pressure Air Temp Water Temp Dewpoint Dewpoint Depression Visibility Wind Speed Wind Dir Waves Ship Positions

Kasagimaru

Last reported at 2016-May-20 02:19 UTC. Time now 2016-May-26 10:43 UTC.
Position N 34°18' E 134°58'.

Length 42 m; draft 3.5 m.

Type: Tug. MMSI: 431300268.

Date/timePositionNaut miles runAvg speedWind from/ knotsBaromVisibWave heightAir tempDewpointWater temp
2016-May-20 02:19N 34°18' E 134°58'912.5
2016-May-20 01:33N 34°26' E 135°03'1312.3
2016-May-20 00:32N 34°32' E 135°17'10 9.9
2016-May-19 23:32N 34°38' E 135°27'3 3.1
2016-May-19 22:33N 34°38' E 135°23'6 0.7
2016-May-19 14:14N 34°33' E 135°27'0 0.0
2016-May-19 13:33N 34°33' E 135°27'0 0.0
2016-May-19 11:33N 34°33' E 135°27'0 0.0
2016-May-19 10:33N 34°33' E 135°27'2 2.2
2016-May-19 09:33N 34°31' E 135°25'2 2.2
2016-May-19 08:32N 34°33' E 135°26'0 0.4
2016-May-19 07:33N 34°33' E 135°27'0 0.0
2016-May-19 06:32N 34°33' E 135°27'0 0.0
2016-May-19 04:33N 34°33' E 135°27'0 0.0
2016-May-19 03:31N 34°33' E 135°27'0 0.0
2016-May-19 00:33N 34°33' E 135°27'0 0.0
2016-May-18 21:32N 34°33' E 135°27'0 0.0
2016-May-18 20:28N 34°33' E 135°27'0 0.0
2016-May-18 19:33N 34°33' E 135°27'0 0.0
2016-May-18 16:31N 34°33' E 135°27'0 0.0
2016-May-18 15:06N 34°33' E 135°27'0 0.0
2016-May-18 14:03N 34°33' E 135°27'0 0.0
2016-May-18 13:33N 34°33' E 135°27'0 0.0
2016-May-18 12:33N 34°33' E 135°27'0 0.0
2016-May-18 11:34N 34°33' E 135°27'0 0.0
2016-May-18 10:33N 34°33' E 135°27'0 0.0
2016-May-18 09:33N 34°33' E 135°27'0 0.0
2016-May-18 08:29N 34°33' E 135°27'3 3.4
2016-May-18 07:27N 34°31' E 135°23'0 0.1
2016-May-18 03:33N 34°31' E 135°23'2 2.5
2016-May-18 02:33N 34°34' E 135°24'3 2.2
2016-May-18 01:03N 34°33' E 135°21'2 3.3
2016-May-18 00:33N 34°34' E 135°19'6 6.0
2016-May-17 23:31N 34°33' E 135°26'0 0.4
2016-May-17 22:30N 34°33' E 135°27'0 0.0
2016-May-17 21:23N 34°33' E 135°27'0 0.0
2016-May-17 20:31N 34°33' E 135°27'0 0.0
2016-May-17 18:33N 34°33' E 135°27'0 0.0
2016-May-17 09:06N 34°33' E 135°27'0 0.0
2016-May-17 05:33N 34°33' E 135°27'0 0.0
2016-May-17 04:30N 34°33' E 135°27'0 0.0
2016-May-17 03:30N 34°33' E 135°27'0 0.0
2016-May-16 22:30N 34°33' E 135°27'0 0.0
2016-May-16 20:30N 34°33' E 135°27'0 0.0
2016-May-16 19:10N 34°33' E 135°27'0 0.0
2016-May-16 16:25N 34°33' E 135°27'3 3.7
2016-May-16 15:32N 34°31' E 135°23'0 0.4
2016-May-16 14:33N 34°31' E 135°23'0 0.0
2016-May-16 13:14N 34°31' E 135°23'0 0.5
2016-May-16 12:32N 34°31' E 135°23'0 0.2
2016-May-16 11:33N 34°31' E 135°24'0 0.3
2016-May-16 10:33N 34°31' E 135°24'0 0.0
2016-May-16 09:33N 34°31' E 135°24'0 0.0
2016-May-16 08:33N 34°31' E 135°24'0 0.0
2016-May-16 07:33N 34°31' E 135°24'0 0.0
2016-May-16 06:33N 34°31' E 135°24'0 0.0
2016-May-16 05:34N 34°31' E 135°24'1 0.7
2016-May-16 04:32N 34°31' E 135°23'3 2.5
2016-May-16 03:26N 34°34' E 135°24'2 1.7
2016-May-16 02:30N 34°33' E 135°26'1 1.1
2016-May-16 01:26N 34°33' E 135°25'1 0.9
2016-May-16 00:33N 34°33' E 135°25'4 3.6
2016-May-15 23:33N 34°33' E 135°20'5 5.1
2016-May-15 22:32N 34°33' E 135°27'0 0.0
2016-May-15 21:33N 34°33' E 135°27'0 0.0
2016-May-15 20:32N 34°33' E 135°27'0 0.0
2016-May-15 19:25N 34°33' E 135°27'0 0.0
2016-May-15 18:33N 34°33' E 135°27'0 0.0
2016-May-15 17:33N 34°33' E 135°27'0 0.0
2016-May-15 16:33N 34°33' E 135°27'0 0.0
2016-May-15 15:33N 34°33' E 135°27'0 0.0
2016-May-15 14:33N 34°33' E 135°27'0 0.0
2016-May-15 13:33N 34°33' E 135°27'0 0.0
2016-May-15 11:14N 34°33' E 135°27'0 0.0
2016-May-15 10:33N 34°33' E 135°27'0 0.0
2016-May-15 09:33N 34°33' E 135°27'0 0.0
2016-May-15 08:33N 34°33' E 135°27'0 0.0
2016-May-15 07:32N 34°33' E 135°27'0 0.0
2016-May-15 06:33N 34°33' E 135°27'0 0.0
2016-May-15 05:33N 34°33' E 135°27'0 0.0
2016-May-15 04:30N 34°33' E 135°27'0 0.0
2016-May-15 03:33N 34°33' E 135°27'0 0.0
2016-May-15 02:13N 34°33' E 135°27'0 0.0
2016-May-15 01:25N 34°33' E 135°27'0 0.0
2016-May-15 00:22N 34°33' E 135°27'0 0.0
2016-May-14 23:27N 34°33' E 135°27'2 2.6
2016-May-14 22:32N 34°35' E 135°27'4 3.7
2016-May-14 21:33N 34°36' E 135°23'4 4.1
2016-May-14 20:33N 34°33' E 135°27'0 0.0
2016-May-14 19:33N 34°33' E 135°27'0 0.0
2016-May-14 18:33N 34°33' E 135°27'0 0.0
2016-May-14 17:33N 34°33' E 135°27'0 0.0
2016-May-14 16:33N 34°33' E 135°27'0 0.0
2016-May-14 15:33N 34°33' E 135°27'0 0.0
2016-May-14 14:33N 34°33' E 135°27'0 0.0
2016-May-14 13:16N 34°33' E 135°27'0 0.0
2016-May-14 12:15N 34°33' E 135°27'0 0.0
2016-May-14 11:33N 34°33' E 135°27'0 0.0
2016-May-14 10:32N 34°33' E 135°27'0 0.0
2016-May-14 09:33N 34°33' E 135°27'0 0.0
2016-May-14 08:29N 34°33' E 135°27'2 2.6
2016-May-14 07:33N 34°32' E 135°24'1 0.8
2016-May-14 06:33N 34°31' E 135°24'2 0.3
2016-May-13 22:33N 34°34' E 135°23'2 2.1
2016-May-13 21:33N 34°33' E 135°26'1 0.7
2016-May-13 20:33N 34°33' E 135°27'0 0.0
2016-May-13 19:33N 34°33' E 135°27'0 0.0
2016-May-13 14:25N 34°33' E 135°27'0 0.0
2016-May-13 13:28N 34°33' E 135°27'0 0.0
2016-May-13 12:19N 34°33' E 135°27'0 0.0
2016-May-13 11:33N 34°33' E 135°27'0 0.0
2016-May-13 10:33N 34°33' E 135°27'0 0.0
2016-May-13 09:31N 34°33' E 135°27'0 0.0
2016-May-13 08:31N 34°33' E 135°27'0 0.0
2016-May-13 07:32N 34°33' E 135°27'2 0.8
2016-May-13 04:33N 34°34' E 135°24'5 5.3
2016-May-13 03:33N 34°39' E 135°25'3 2.8
2016-May-13 02:33N 34°37' E 135°23'2 2.2
2016-May-13 01:30N 34°35' E 135°23'2 2.3
2016-May-13 00:32N 34°33' E 135°25'1 0.7
2016-May-12 23:33N 34°33' E 135°26'1 0.5
2016-May-12 22:30N 34°33' E 135°27'0 0.0
2016-May-12 21:33N 34°33' E 135°27'0 0.0
2016-May-12 20:33N 34°33' E 135°27'0 0.0
2016-May-12 18:32N 34°33' E 135°27'0 0.0
2016-May-12 17:33N 34°33' E 135°27'0 0.0
2016-May-12 16:33N 34°33' E 135°27'0 0.0
2016-May-12 13:10N 34°33' E 135°27'0 0.0
2016-May-12 12:16N 34°33' E 135°27'0 0.0
2016-May-12 11:33N 34°33' E 135°27'0 0.0
2016-May-12 10:22N 34°33' E 135°27'0 0.0
2016-May-12 09:32N 34°33' E 135°27'0 0.0
2016-May-12 08:30N 34°33' E 135°27'0 0.0
2016-May-12 07:33N 34°33' E 135°27'0 0.0
2016-May-12 05:27N 34°33' E 135°27'0 0.0
2016-May-12 04:33N 34°33' E 135°27'0 0.0
2016-May-12 03:32N 34°33' E 135°27'0 0.0
2016-May-12 02:32N 34°33' E 135°27'3 2.5
2016-May-12 01:32N 34°32' E 135°24'2 1.6
2016-May-12 00:33N 34°33' E 135°23'3 0.5
2016-May-11 18:33N 34°33' E 135°27'0 0.0
2016-May-11 17:33N 34°33' E 135°27'0 0.0
2016-May-11 10:26N 34°33' E 135°27'1 0.2
2016-May-11 07:31N 34°33' E 135°26'0 0.1
2016-May-11 06:33N 34°33' E 135°26'3 2.7
2016-May-11 05:28N 34°33' E 135°22'1 1.6
2016-May-11 04:33N 34°34' E 135°21'3 1.5
2016-May-11 02:27N 34°34' E 135°24'3 3.0
2016-May-11 01:31N 34°33' E 135°21'1 0.7
2016-May-11 00:32N 34°34' E 135°21'4 4.1
2016-May-10 23:33N 34°33' E 135°26'1 0.7
2016-May-10 22:30N 34°33' E 135°27'0 0.0
2016-May-10 21:29N 34°33' E 135°27'0 0.0
2016-May-10 20:32N 34°33' E 135°27'0 0.0
2016-May-10 08:23N 34°33' E 135°27'0 0.0
2016-May-10 07:31N 34°33' E 135°27'11 8.8
2016-May-10 06:18N 34°26' E 135°17'11 3.7
2016-May-10 03:25N 34°31' E 135°06'7 8.0
2016-May-10 02:33N 34°37' E 135°01'  
Track history (hours):
 
Tides and Currents Weather Stations Pressure Air Temp Water Temp Dewpoint Dewpoint Depression Visibility Wind Speed Wind Dir Waves Ship Positions

Kasagimaru

Last reported at 2016-May-20 02:19 UTC. Time now 2016-May-26 10:43 UTC.
Position N 34°18' E 134°58'.

Length 42 m; draft 3.5 m.

Type: Tug. MMSI: 431300268.

Date/timePositionNaut miles runAvg speedWind from/ knotsBaromVisibWave heightAir tempDewpointWater temp
2016-May-20 02:19N 34°18' E 134°58'912.5
2016-May-20 01:33N 34°26' E 135°03'1312.3
2016-May-20 00:32N 34°32' E 135°17'10 9.9
2016-May-19 23:32N 34°38' E 135°27'3 3.1
2016-May-19 22:33N 34°38' E 135°23'6 0.7
2016-May-19 14:14N 34°33' E 135°27'0 0.0
2016-May-19 13:33N 34°33' E 135°27'0 0.0
2016-May-19 11:33N 34°33' E 135°27'0 0.0
2016-May-19 10:33N 34°33' E 135°27'2 2.2
2016-May-19 09:33N 34°31' E 135°25'2 2.2
2016-May-19 08:32N 34°33' E 135°26'0 0.4
2016-May-19 07:33N 34°33' E 135°27'0 0.0
2016-May-19 06:32N 34°33' E 135°27'0 0.0
2016-May-19 04:33N 34°33' E 135°27'0 0.0
2016-May-19 03:31N 34°33' E 135°27'0 0.0
2016-May-19 00:33N 34°33' E 135°27'0 0.0
2016-May-18 21:32N 34°33' E 135°27'0 0.0
2016-May-18 20:28N 34°33' E 135°27'0 0.0
2016-May-18 19:33N 34°33' E 135°27'0 0.0
2016-May-18 16:31N 34°33' E 135°27'0 0.0
2016-May-18 15:06N 34°33' E 135°27'0 0.0
2016-May-18 14:03N 34°33' E 135°27'0 0.0
2016-May-18 13:33N 34°33' E 135°27'0 0.0
2016-May-18 12:33N 34°33' E 135°27'0 0.0
2016-May-18 11:34N 34°33' E 135°27'0 0.0
2016-May-18 10:33N 34°33' E 135°27'0 0.0
2016-May-18 09:33N 34°33' E 135°27'0 0.0
2016-May-18 08:29N 34°33' E 135°27'3 3.4
2016-May-18 07:27N 34°31' E 135°23'0 0.1
2016-May-18 03:33N 34°31' E 135°23'2 2.5
2016-May-18 02:33N 34°34' E 135°24'3 2.2
2016-May-18 01:03N 34°33' E 135°21'2 3.3
2016-May-18 00:33N 34°34' E 135°19'6 6.0
2016-May-17 23:31N 34°33' E 135°26'0 0.4
2016-May-17 22:30N 34°33' E 135°27'0 0.0
2016-May-17 21:23N 34°33' E 135°27'0 0.0
2016-May-17 20:31N 34°33' E 135°27'0 0.0
2016-May-17 18:33N 34°33' E 135°27'0 0.0
2016-May-17 09:06N 34°33' E 135°27'0 0.0
2016-May-17 05:33N 34°33' E 135°27'0 0.0
2016-May-17 04:30N 34°33' E 135°27'0 0.0
2016-May-17 03:30N 34°33' E 135°27'0 0.0
2016-May-16 22:30N 34°33' E 135°27'0 0.0
2016-May-16 20:30N 34°33' E 135°27'0 0.0
2016-May-16 19:10N 34°33' E 135°27'0 0.0
2016-May-16 16:25N 34°33' E 135°27'3 3.7
2016-May-16 15:32N 34°31' E 135°23'0 0.4
2016-May-16 14:33N 34°31' E 135°23'0 0.0
2016-May-16 13:14N 34°31' E 135°23'0 0.5
2016-May-16 12:32N 34°31' E 135°23'0 0.2
2016-May-16 11:33N 34°31' E 135°24'0 0.3
2016-May-16 10:33N 34°31' E 135°24'0 0.0
2016-May-16 09:33N 34°31' E 135°24'0 0.0
2016-May-16 08:33N 34°31' E 135°24'0 0.0
2016-May-16 07:33N 34°31' E 135°24'0 0.0
2016-May-16 06:33N 34°31' E 135°24'0 0.0
2016-May-16 05:34N 34°31' E 135°24'1 0.7
2016-May-16 04:32N 34°31' E 135°23'3 2.5
2016-May-16 03:26N 34°34' E 135°24'2 1.7
2016-May-16 02:30N 34°33' E 135°26'1 1.1
2016-May-16 01:26N 34°33' E 135°25'1 0.9
2016-May-16 00:33N 34°33' E 135°25'4 3.6
2016-May-15 23:33N 34°33' E 135°20'5 5.1
2016-May-15 22:32N 34°33' E 135°27'0 0.0
2016-May-15 21:33N 34°33' E 135°27'0 0.0
2016-May-15 20:32N 34°33' E 135°27'0 0.0
2016-May-15 19:25N 34°33' E 135°27'0 0.0
2016-May-15 18:33N 34°33' E 135°27'0 0.0
2016-May-15 17:33N 34°33' E 135°27'0 0.0
2016-May-15 16:33N 34°33' E 135°27'0 0.0
2016-May-15 15:33N 34°33' E 135°27'0 0.0
2016-May-15 14:33N 34°33' E 135°27'0 0.0
2016-May-15 13:33N 34°33' E 135°27'0 0.0
2016-May-15 11:14N 34°33' E 135°27'0 0.0
2016-May-15 10:33N 34°33' E 135°27'0 0.0
2016-May-15 09:33N 34°33' E 135°27'0 0.0
2016-May-15 08:33N 34°33' E 135°27'0 0.0
2016-May-15 07:32N 34°33' E 135°27'0 0.0
2016-May-15 06:33N 34°33' E 135°27'0 0.0
2016-May-15 05:33N 34°33' E 135°27'0 0.0
2016-May-15 04:30N 34°33' E 135°27'0 0.0
2016-May-15 03:33N 34°33' E 135°27'0 0.0
2016-May-15 02:13N 34°33' E 135°27'0 0.0
2016-May-15 01:25N 34°33' E 135°27'0 0.0
2016-May-15 00:22N 34°33' E 135°27'0 0.0
2016-May-14 23:27N 34°33' E 135°27'2 2.6
2016-May-14 22:32N 34°35' E 135°27'4 3.7
2016-May-14 21:33N 34°36' E 135°23'4 4.1
2016-May-14 20:33N 34°33' E 135°27'0 0.0
2016-May-14 19:33N 34°33' E 135°27'0 0.0
2016-May-14 18:33N 34°33' E 135°27'0 0.0
2016-May-14 17:33N 34°33' E 135°27'0 0.0
2016-May-14 16:33N 34°33' E 135°27'0 0.0
2016-May-14 15:33N 34°33' E 135°27'0 0.0
2016-May-14 14:33N 34°33' E 135°27'0 0.0
2016-May-14 13:16N 34°33' E 135°27'0 0.0
2016-May-14 12:15N 34°33' E 135°27'0 0.0
2016-May-14 11:33N 34°33' E 135°27'0 0.0
2016-May-14 10:32N 34°33' E 135°27'0 0.0
2016-May-14 09:33N 34°33' E 135°27'0 0.0
2016-May-14 08:29N 34°33' E 135°27'2 2.6
2016-May-14 07:33N 34°32' E 135°24'1 0.8
2016-May-14 06:33N 34°31' E 135°24'2 0.3
2016-May-13 22:33N 34°34' E 135°23'2 2.1
2016-May-13 21:33N 34°33' E 135°26'1 0.7
2016-May-13 20:33N 34°33' E 135°27'0 0.0
2016-May-13 19:33N 34°33' E 135°27'0 0.0
2016-May-13 14:25N 34°33' E 135°27'0 0.0
2016-May-13 13:28N 34°33' E 135°27'0 0.0
2016-May-13 12:19N 34°33' E 135°27'0 0.0
2016-May-13 11:33N 34°33' E 135°27'0 0.0
2016-May-13 10:33N 34°33' E 135°27'0 0.0
2016-May-13 09:31N 34°33' E 135°27'0 0.0
2016-May-13 08:31N 34°33' E 135°27'0 0.0
2016-May-13 07:32N 34°33' E 135°27'2 0.8
2016-May-13 04:33N 34°34' E 135°24'5 5.3
2016-May-13 03:33N 34°39' E 135°25'3 2.8
2016-May-13 02:33N 34°37' E 135°23'2 2.2
2016-May-13 01:30N 34°35' E 135°23'2 2.3
2016-May-13 00:32N 34°33' E 135°25'1 0.7
2016-May-12 23:33N 34°33' E 135°26'1 0.5
2016-May-12 22:30N 34°33' E 135°27'0 0.0
2016-May-12 21:33N 34°33' E 135°27'0 0.0
2016-May-12 20:33N 34°33' E 135°27'0 0.0
2016-May-12 18:32N 34°33' E 135°27'0 0.0
2016-May-12 17:33N 34°33' E 135°27'0 0.0
2016-May-12 16:33N 34°33' E 135°27'0 0.0
2016-May-12 13:10N 34°33' E 135°27'0 0.0
2016-May-12 12:16N 34°33' E 135°27'0 0.0
2016-May-12 11:33N 34°33' E 135°27'0 0.0
2016-May-12 10:22N 34°33' E 135°27'0 0.0
2016-May-12 09:32N 34°33' E 135°27'0 0.0
2016-May-12 08:30N 34°33' E 135°27'0 0.0
2016-May-12 07:33N 34°33' E 135°27'0 0.0
2016-May-12 05:27N 34°33' E 135°27'0 0.0
2016-May-12 04:33N 34°33' E 135°27'0 0.0
2016-May-12 03:32N 34°33' E 135°27'0 0.0
2016-May-12 02:32N 34°33' E 135°27'3 2.5
2016-May-12 01:32N 34°32' E 135°24'2 1.6
2016-May-12 00:33N 34°33' E 135°23'3 0.5
2016-May-11 18:33N 34°33' E 135°27'0 0.0
2016-May-11 17:33N 34°33' E 135°27'0 0.0
2016-May-11 10:26N 34°33' E 135°27'1 0.2
2016-May-11 07:31N 34°33' E 135°26'0 0.1
2016-May-11 06:33N 34°33' E 135°26'3 2.7
2016-May-11 05:28N 34°33' E 135°22'1 1.6
2016-May-11 04:33N 34°34' E 135°21'3 1.5
2016-May-11 02:27N 34°34' E 135°24'3 3.0
2016-May-11 01:31N 34°33' E 135°21'1 0.7
2016-May-11 00:32N 34°34' E 135°21'4 4.1
2016-May-10 23:33N 34°33' E 135°26'1 0.7
2016-May-10 22:30N 34°33' E 135°27'0 0.0
2016-May-10 21:29N 34°33' E 135°27'0 0.0
2016-May-10 20:32N 34°33' E 135°27'0 0.0
2016-May-10 08:23N 34°33' E 135°27'0 0.0
2016-May-10 07:31N 34°33' E 135°27'11 8.8
2016-May-10 06:18N 34°26' E 135°17'11 3.7
2016-May-10 03:25N 34°31' E 135°06'7 8.0
2016-May-10 02:33N 34°37' E 135°01'  

Dump ship's entire track history